Time;durP1;ratioP1;P1;durP2;ratioP2;P2;SDS_P1;SDS_P2;PMS_P1;PMS_P2;Temp;Humidity;BMP_temperature;BMP_pressure;BME280_temperature;BME280_humidity;BME280_pressure;Samples;Min_cycle;Max_cycle;Signal;HPM_P1;HPM_P2
2023/06/22 00:01:50;;;;;;;16.07;7.20;;;19.90;46.50;;;;;;5030188;28;46450;-77
2023/06/22 00:04:15;;;;;;;16.50;6.30;;;19.90;47.60;;;;;;5028572;28;46435;-79
2023/06/22 00:06:41;;;;;;;11.57;6.47;;;20.20;47.80;;;;;;5027713;28;46531;-78
2023/06/22 00:09:07;;;;;;;20.03;6.83;;;19.80;47.60;;;;;;5030120;28;47287;-78
2023/06/22 00:11:33;;;;;;;16.87;6.90;;;19.80;46.40;;;;;;5029598;28;46371;-79
2023/06/22 00:13:59;;;;;;;20.70;7.57;;;19.90;47.60;;;;;;5028340;28;46760;-78
2023/06/22 00:16:25;;;;;;;13.40;6.40;;;19.80;48.00;;;;;;5029310;28;46673;-78
2023/06/22 00:18:50;;;;;;;15.27;6.70;;;19.80;47.80;;;;;;5029450;28;46324;-80
2023/06/22 00:21:16;;;;;;;21.27;8.27;;;19.80;47.30;;;;;;5027867;28;47052;-79
2023/06/22 00:23:42;;;;;;;14.93;6.70;;;19.70;48.10;;;;;;5029895;28;46489;-79
2023/06/22 00:26:07;;;;;;;20.77;6.57;;;19.70;47.70;;;;;;5034671;28;46502;-82
2023/06/22 00:28:34;;;;;;;15.27;7.20;;;19.70;47.90;;;;;;5033671;28;46023;-80
2023/06/22 00:31:00;;;;;;;20.07;7.93;;;19.70;47.60;;;;;;5036051;28;46792;-80
2023/06/22 00:33:26;;;;;;;17.90;7.77;;;19.90;47.60;;;;;;5032408;28;46276;-79
2023/06/22 00:35:53;;;;;;;17.53;6.23;;;19.70;47.40;;;;;;5031914;28;46593;-78
2023/06/22 00:38:19;;;;;;;11.87;6.67;;;19.70;47.40;;;;;;5032044;28;46050;-78
2023/06/22 00:40:44;;;;;;;10.30;6.60;;;19.70;47.30;;;;;;5029611;28;46931;-79
2023/06/22 00:43:10;;;;;;;15.20;6.30;;;19.70;47.40;;;;;;5033253;28;46511;-78
2023/06/22 00:45:36;;;;;;;10.43;6.47;;;19.70;47.50;;;;;;5032545;28;46495;-78
2023/06/22 00:48:02;;;;;;;17.63;7.30;;;19.60;48.00;;;;;;5033012;28;47117;-78
2023/06/22 00:50:35;;;;;;;18.00;6.70;;;19.60;48.30;;;;;;5030248;28;46485;-81
2023/06/22 00:53:08;;;;;;;14.20;6.50;;;19.60;48.00;;;;;;5033819;28;46447;-78
2023/06/22 00:55:39;;;;;;;17.87;7.43;;;19.70;48.20;;;;;;5030291;28;46514;-78
2023/06/22 00:58:07;;;;;;;12.70;6.70;;;19.60;47.90;;;;;;5031297;28;48279;-78
2023/06/22 01:00:33;;;;;;;20.30;6.57;;;19.70;48.00;;;;;;5035580;28;46423;-78
2023/06/22 01:02:59;;;;;;;17.60;6.70;;;19.50;47.80;;;;;;5034930;28;46494;-77
2023/06/22 01:05:24;;;;;;;17.50;7.63;;;19.50;48.10;;;;;;5031500;28;45959;-79
2023/06/22 01:07:56;;;;;;;19.47;7.30;;;19.50;48.20;;;;;;5032869;28;47377;-79
2023/06/22 01:10:43;;;;;;;19.47;6.40;;;19.50;48.00;;;;;;5032061;28;46143;-78
2023/06/22 01:13:18;;;;;;;13.57;7.80;;;19.50;47.90;;;;;;5032587;28;46490;-78
2023/06/22 01:15:49;;;;;;;16.90;6.87;;;19.50;47.60;;;;;;5030857;28;46849;-77
2023/06/22 01:18:18;;;;;;;15.83;6.67;;;19.40;47.90;;;;;;5032268;28;48932;-79
2023/06/22 01:20:44;;;;;;;14.13;5.97;;;19.40;47.20;;;;;;5032247;28;46557;-79
2023/06/22 01:23:40;;;;;;;15.90;6.30;;;19.50;48.00;;;;;;5031035;28;46642;-79
2023/06/22 01:26:21;;;;;;;16.43;6.83;;;19.40;47.90;;;;;;5032600;28;46452;-78
2023/06/22 01:28:53;;;;;;;15.13;6.20;;;19.40;47.70;;;;;;5033363;28;46582;-77
2023/06/22 01:31:25;;;;;;;18.60;7.33;;;19.40;46.90;;;;;;5032124;28;46514;-79
2023/06/22 01:34:05;;;;;;;13.87;6.50;;;19.40;47.80;;;;;;5025814;28;46820;-79
2023/06/22 01:36:33;;;;;;;15.60;7.00;;;18.90;47.60;;;;;;5030252;28;47163;-77
2023/06/22 01:38:59;;;;;;;14.43;6.37;;;19.30;48.00;;;;;;5030796;28;46962;-79
2023/06/22 01:41:27;;;;;;;17.03;6.50;;;19.30;48.10;;;;;;5028022;28;46972;-79
2023/06/22 01:43:54;;;;;;;23.03;6.77;;;19.30;48.30;;;;;;5030392;28;46764;-78
2023/06/22 01:46:21;;;;;;;15.73;7.03;;;19.30;48.40;;;;;;5031994;28;46855;-79
2023/06/22 01:48:47;;;;;;;13.53;6.90;;;19.20;48.40;;;;;;5031915;28;48203;-81
2023/06/22 01:51:13;;;;;;;15.60;6.80;;;19.20;48.60;;;;;;5033573;28;46198;-82
2023/06/22 01:53:39;;;;;;;13.47;5.93;;;19.30;48.80;;;;;;5032822;28;46308;-77
2023/06/22 01:56:04;;;;;;;14.40;6.17;;;19.20;48.60;;;;;;5031183;28;46718;-78
2023/06/22 01:58:32;;;;;;;18.33;6.00;;;19.20;48.70;;;;;;5032420;28;47158;-79
2023/06/22 02:01:11;;;;;;;16.13;6.50;;;19.10;48.00;;;;;;5027676;28;46554;-77
2023/06/22 02:04:05;;;;;;;13.10;6.03;;;19.20;49.10;;;;;;5031598;28;46549;-78
2023/06/22 02:06:36;;;;;;;13.30;7.13;;;19.10;48.90;;;;;;5031945;28;46532;-78
2023/06/22 02:09:08;;;;;;;12.03;5.87;;;19.20;48.90;;;;;;5031312;28;49337;-78
2023/06/22 02:11:36;;;;;;;14.17;6.30;;;19.10;48.80;;;;;;5029059;28;46503;-77
2023/06/22 02:14:02;;;;;;;16.27;6.40;;;19.10;48.80;;;;;;5029653;28;46435;-77
2023/06/22 02:16:31;;;;;;;14.20;5.73;;;19.10;48.80;;;;;;5029874;28;46454;-78
2023/06/22 02:19:01;;;;;;;18.13;7.13;;;19.10;48.80;;;;;;5029502;28;46661;-77
2023/06/22 02:21:27;;;;;;;16.47;6.70;;;19.00;48.90;;;;;;5031613;28;46518;-78
2023/06/22 02:23:52;;;;;;;10.80;6.40;;;19.00;48.60;;;;;;5032104;28;46621;-79
2023/06/22 02:26:18;;;;;;;14.10;6.90;;;19.00;48.60;;;;;;5030790;28;46844;-76
2023/06/22 02:28:44;;;;;;;21.70;7.90;;;18.90;48.50;;;;;;5029537;28;46465;-77
2023/06/22 02:31:10;;;;;;;15.30;6.50;;;18.90;47.70;;;;;;5032999;28;46511;-77
2023/06/22 02:33:36;;;;;;;16.00;7.53;;;18.90;48.80;;;;;;5031845;28;46546;-78
2023/06/22 02:36:05;;;;;;;15.17;7.10;;;18.90;48.90;;;;;;5031666;28;46649;-77
2023/06/22 02:38:34;;;;;;;17.20;7.77;;;18.80;49.10;;;;;;5030877;28;46798;-78
2023/06/22 02:41:01;;;;;;;14.30;8.13;;;18.70;48.50;;;;;;5030300;28;46601;-78
2023/06/22 02:43:26;;;;;;;15.80;7.50;;;18.70;49.50;;;;;;5030053;28;46510;-78
2023/06/22 02:45:52;;;;;;;16.90;7.70;;;18.70;49.70;;;;;;5030542;28;46230;-79
2023/06/22 02:48:17;;;;;;;15.47;7.27;;;18.70;49.80;;;;;;5030946;28;49278;-75
2023/06/22 02:50:43;;;;;;;14.00;6.43;;;18.60;48.90;;;;;;5031036;28;46426;-78
2023/06/22 02:53:08;;;;;;;18.07;7.90;;;18.60;49.80;;;;;;5032467;28;46376;-77
2023/06/22 02:55:34;;;;;;;18.63;7.87;;;18.60;49.90;;;;;;5032231;28;46514;-82
2023/06/22 02:57:59;;;;;;;18.57;8.43;;;18.60;50.00;;;;;;5031540;28;46422;-79
2023/06/22 03:00:30;;;;;;;14.87;7.60;;;18.50;50.30;;;;;;5031100;28;46728;-79
2023/06/22 03:02:57;;;;;;;16.73;8.27;;;18.50;50.50;;;;;;5030607;28;46498;-79
2023/06/22 03:05:23;;;;;;;22.43;8.20;;;18.50;50.50;;;;;;5030140;28;46646;-81
2023/06/22 03:07:48;;;;;;;15.93;7.67;;;18.50;50.50;;;;;;5031162;28;48209;-77
2023/06/22 03:10:15;;;;;;;12.67;7.13;;;18.50;50.40;;;;;;5032543;28;46729;-78
2023/06/22 03:12:41;;;;;;;15.90;8.03;;;18.50;50.30;;;;;;5028972;28;46494;-79
2023/06/22 03:15:12;;;;;;;15.80;7.80;;;18.60;50.50;;;;;;5033613;28;46237;-81
2023/06/22 03:17:39;;;;;;;16.10;7.70;;;18.40;50.80;;;;;;5031601;28;48073;-78
2023/06/22 03:20:09;;;;;;;27.23;8.73;;;18.40;50.70;;;;;;5033699;28;46695;-79
2023/06/22 03:22:39;;;;;;;17.63;8.60;;;18.40;51.60;;;;;;5031281;28;46961;-78
2023/06/22 03:25:10;;;;;;;12.73;8.20;;;18.40;52.00;;;;;;5032079;28;46274;-77
2023/06/22 03:27:37;;;;;;;15.20;8.40;;;18.30;51.70;;;;;;5031365;28;46764;-75
2023/06/22 03:30:03;;;;;;;15.80;8.40;;;18.50;50.80;;;;;;5043254;28;46880;-76
2023/06/22 03:32:28;;;;;;;20.13;8.60;;;18.40;51.60;;;;;;5030261;28;46642;-77
2023/06/22 03:34:54;;;;;;;15.53;8.53;;;18.40;52.00;;;;;;5029270;28;46531;-78
2023/06/22 03:37:19;;;;;;;20.07;7.87;;;18.50;51.90;;;;;;5030263;28;47118;-77
2023/06/22 03:39:45;;;;;;;16.97;7.30;;;18.60;52.00;;;;;;5029557;28;46451;-78
2023/06/22 03:42:10;;;;;;;15.00;7.67;;;18.60;51.00;;;;;;5029019;28;46465;-78
2023/06/22 03:44:36;;;;;;;18.63;8.30;;;18.70;52.20;;;;;;5030715;28;46454;-76
2023/06/22 03:47:03;;;;;;;17.13;7.80;;;18.80;52.20;;;;;;5028050;28;47208;-77
2023/06/22 03:49:29;;;;;;;13.87;7.60;;;18.80;52.40;;;;;;5028392;28;46482;-78
2023/06/22 03:51:54;;;;;;;26.17;7.53;;;18.80;51.50;;;;;;5028730;28;46736;-77
2023/06/22 03:54:20;;;;;;;12.73;7.13;;;18.90;52.20;;;;;;5030153;28;46450;-77
2023/06/22 03:56:45;;;;;;;22.40;8.67;;;19.10;51.80;;;;;;5028220;28;48051;-77
2023/06/22 03:59:11;;;;;;;12.00;7.57;;;19.20;51.40;;;;;;5027846;28;46412;-78
2023/06/22 04:01:36;;;;;;;20.43;8.13;;;19.50;52.10;;;;;;5029547;28;47722;-78
2023/06/22 04:04:02;;;;;;;19.80;7.33;;;19.50;50.40;;;;;;5029723;28;46499;-77
2023/06/22 04:06:27;;;;;;;19.17;8.90;;;19.60;50.20;;;;;;5027804;28;48019;-78
2023/06/22 04:08:53;;;;;;;19.70;8.00;;;19.60;50.30;;;;;;5027831;28;46713;-77
2023/06/22 04:11:19;;;;;;;16.50;9.13;;;19.70;49.10;;;;;;5030443;28;45822;-79
2023/06/22 04:13:44;;;;;;;17.87;8.10;;;19.80;50.10;;;;;;5028601;28;46614;-76
2023/06/22 04:16:10;;;;;;;14.23;6.80;;;19.90;49.70;;;;;;5028532;28;47067;-77
2023/06/22 04:18:36;;;;;;;16.70;8.00;;;20.00;49.30;;;;;;5031848;28;46680;-77
2023/06/22 04:21:02;;;;;;;17.83;7.50;;;20.20;47.60;;;;;;5029458;28;46514;-78
2023/06/22 04:23:27;;;;;;;17.80;8.00;;;20.30;48.40;;;;;;5028685;28;46817;-77
2023/06/22 04:25:53;;;;;;;19.57;7.90;;;20.40;48.10;;;;;;5031767;28;46879;-79
2023/06/22 04:28:19;;;;;;;14.87;7.40;;;20.40;48.00;;;;;;5031533;28;46769;-78
2023/06/22 04:30:47;;;;;;;16.97;7.77;;;20.70;46.20;;;;;;5028611;28;46460;-77
2023/06/22 04:33:14;;;;;;;26.30;8.00;;;20.80;47.00;;;;;;5028561;28;46606;-77
2023/06/22 04:35:42;;;;;;;14.80;7.87;;;20.90;46.10;;;;;;5029557;28;48401;-79
2023/06/22 04:38:08;;;;;;;14.17;7.53;;;21.00;45.90;;;;;;5031227;28;46810;-77
2023/06/22 04:40:33;;;;;;;16.87;7.50;;;21.10;45.90;;;;;;5028035;28;46647;-77
2023/06/22 04:43:02;;;;;;;16.53;7.93;;;21.40;45.30;;;;;;5029523;28;46467;-77
2023/06/22 04:45:30;;;;;;;14.17;6.63;;;21.80;44.60;;;;;;5030236;28;46553;-78
2023/06/22 04:47:56;;;;;;;14.43;7.00;;;22.30;43.20;;;;;;5030084;28;46501;-79
2023/06/22 04:50:23;;;;;;;12.60;6.43;;;23.30;38.70;;;;;;5028408;28;46546;-79
2023/06/22 04:52:49;;;;;;;11.13;6.80;;;23.40;39.30;;;;;;5029921;28;46546;-79
2023/06/22 04:55:19;;;;;;;17.03;7.20;;;23.80;37.50;;;;;;5032047;28;47417;-76
2023/06/22 04:57:48;;;;;;;17.67;6.70;;;24.00;36.90;;;;;;5030596;28;46500;-79
2023/06/22 05:00:17;;;;;;;23.17;6.40;;;24.40;34.20;;;;;;5033124;28;46505;-80
2023/06/22 05:02:44;;;;;;;15.00;6.10;;;24.50;34.90;;;;;;5032129;28;46498;-79
2023/06/22 05:05:13;;;;;;;13.00;5.80;;;24.80;34.20;;;;;;5032125;28;46955;-76
2023/06/22 05:07:59;;;;;;;17.93;7.30;;;24.60;33.50;;;;;;5028055;28;46603;-78
2023/06/22 05:10:25;;;;;;;12.97;6.63;;;25.00;32.50;;;;;;5028323;28;46548;-78
2023/06/22 05:12:51;;;;;;;14.97;5.83;;;25.30;32.30;;;;;;5030535;28;46454;-77
2023/06/22 05:15:19;;;;;;;14.73;6.90;;;25.50;30.00;;;;;;5032668;28;46506;-76
2023/06/22 05:17:45;;;;;;;14.57;6.77;;;26.00;28.90;;;;;;5031159;28;46526;-78
2023/06/22 05:20:11;;;;;;;17.30;6.87;;;26.30;26.60;;;;;;5029697;28;46833;-78
2023/06/22 05:22:38;;;;;;;17.13;6.20;;;26.40;27.00;;;;;;5033008;28;46449;-78
2023/06/22 05:25:06;;;;;;;20.97;7.30;;;27.00;25.40;;;;;;5031051;28;46467;-77
2023/06/22 05:27:31;;;;;;;12.27;7.07;;;27.30;23.70;;;;;;5029604;28;46502;-76
2023/06/22 05:29:57;;;;;;;19.30;6.93;;;27.30;22.70;;;;;;5032943;28;46964;-76
2023/06/22 05:32:22;;;;;;;16.10;6.67;;;27.20;23.50;;;;;;5031430;28;46470;-79
2023/06/22 05:34:48;;;;;;;12.33;6.60;;;27.20;23.60;;;;;;5030935;28;47079;-76
2023/06/22 05:37:13;;;;;;;15.93;6.27;;;27.50;22.50;;;;;;5029774;28;46443;-78
2023/06/22 05:39:39;;;;;;;20.93;6.60;;;27.90;21.30;;;;;;5032021;28;46450;-77
2023/06/22 05:42:06;;;;;;;15.90;6.63;;;27.80;19.90;;;;;;5031946;28;46807;-79
2023/06/22 05:44:33;;;;;;;11.13;5.93;;;27.60;21.30;;;;;;5031282;28;46430;-78
2023/06/22 05:46:59;;;;;;;13.83;5.97;;;27.60;21.10;;;;;;5031157;28;46723;-77
2023/06/22 05:49:29;;;;;;;16.80;6.20;;;28.00;19.50;;;;;;5022981;28;46820;-76
2023/06/22 05:51:56;;;;;;;13.63;6.90;;;28.50;17.50;;;;;;5032411;28;46559;-78
2023/06/22 05:54:22;;;;;;;17.77;7.20;;;28.80;17.90;;;;;;5028407;28;47485;-77
2023/06/22 05:56:47;;;;;;;11.80;6.00;;;28.40;18.40;;;;;;5030796;28;46832;-76
2023/06/22 05:59:13;;;;;;;14.70;7.23;;;27.40;20.80;;;;;;5033435;28;46627;-76
2023/06/22 06:01:40;;;;;;;18.03;6.60;;;26.40;23.20;;;;;;5048077;28;46440;-76
2023/06/22 06:04:08;;;;;;;11.03;6.53;;;25.60;25.20;;;;;;5029460;28;47413;-78
2023/06/22 06:06:34;;;;;;;13.80;7.27;;;25.20;26.10;;;;;;5031455;28;46442;-77
2023/06/22 06:09:00;;;;;;;15.13;6.37;;;25.10;26.00;;;;;;5021575;28;46618;-77
2023/06/22 06:11:26;;;;;;;10.60;6.00;;;25.20;25.20;;;;;;5016477;28;46642;-78
2023/06/22 06:13:51;;;;;;;17.90;7.10;;;25.00;26.00;;;;;;5029512;28;47095;-77
2023/06/22 06:16:17;;;;;;;18.27;7.20;;;25.00;26.00;;;;;;5028840;28;46491;-77
2023/06/22 06:18:42;;;;;;;13.90;7.40;;;25.00;26.00;;;;;;5028195;28;46892;-77
2023/06/22 06:21:08;;;;;;;20.63;7.20;;;25.40;24.50;;;;;;5029216;28;46578;-77
2023/06/22 06:23:33;;;;;;;19.47;7.93;;;25.50;25.00;;;;;;5030994;28;49481;-78
2023/06/22 06:25:59;;;;;;;17.27;7.30;;;25.70;24.60;;;;;;5027052;28;46830;-76
2023/06/22 06:28:25;;;;;;;16.43;7.50;;;25.80;24.50;;;;;;5031230;28;46513;-77
2023/06/22 06:30:51;;;;;;;12.80;7.33;;;25.80;23.20;;;;;;5031307;28;46701;-77
2023/06/22 06:33:17;;;;;;;20.50;7.20;;;25.80;24.10;;;;;;5032327;28;48142;-77
2023/06/22 06:35:42;;;;;;;12.30;6.17;;;25.70;24.20;;;;;;5029248;28;46548;-77
2023/06/22 06:38:08;;;;;;;14.03;7.53;;;25.60;24.30;;;;;;5030116;28;46856;-78
2023/06/22 06:40:33;;;;;;;15.20;7.20;;;25.60;23.20;;;;;;5030110;28;46815;-76
2023/06/22 06:42:59;;;;;;;25.00;7.40;;;25.80;24.20;;;;;;5032984;28;48172;-78
2023/06/22 06:45:26;;;;;;;13.97;6.10;;;25.60;24.00;;;;;;5029614;28;46541;-78
2023/06/22 06:47:52;;;;;;;17.87;6.83;;;25.70;24.00;;;;;;5032458;28;46611;-78
2023/06/22 06:50:18;;;;;;;15.10;7.20;;;25.70;23.30;;;;;;5031903;28;46764;-79
2023/06/22 06:52:44;;;;;;;21.90;7.43;;;25.70;24.20;;;;;;5032360;28;46918;-77
2023/06/22 06:55:11;;;;;;;16.90;7.07;;;25.80;24.10;;;;;;5028670;28;46453;-78
2023/06/22 06:57:38;;;;;;;12.67;7.30;;;26.00;23.90;;;;;;5032484;28;46509;-77
2023/06/22 07:00:13;;;;;;;15.90;7.37;;;25.90;22.60;;;;;;5030269;28;46727;-79
2023/06/22 07:02:40;;;;;;;15.43;7.10;;;25.90;23.50;;;;;;5032662;28;47270;-80
2023/06/22 07:05:06;;;;;;;16.80;7.70;;;25.90;23.70;;;;;;5028561;28;46543;-78
2023/06/22 07:07:32;;;;;;;17.37;8.00;;;26.00;23.60;;;;;;5035688;28;46965;-77
2023/06/22 07:09:58;;;;;;;20.03;6.90;;;26.10;22.50;;;;;;5031965;28;46692;-76
2023/06/22 07:12:24;;;;;;;21.67;6.73;;;26.20;24.40;;;;;;5032004;28;46470;-78
2023/06/22 07:14:50;;;;;;;21.73;7.80;;;26.40;23.10;;;;;;5027134;28;51607;-78
2023/06/22 07:17:15;;;;;;;19.00;7.87;;;26.70;22.60;;;;;;5029745;28;48356;-78
2023/06/22 07:19:42;;;;;;;20.23;7.73;;;26.70;22.30;;;;;;5032844;28;46578;-77
2023/06/22 07:22:07;;;;;;;22.13;8.33;;;26.60;21.60;;;;;;5028617;28;47295;-76
2023/06/22 07:24:33;;;;;;;16.60;7.53;;;26.60;22.50;;;;;;5028407;28;46424;-77
2023/06/22 07:26:59;;;;;;;12.37;6.77;;;26.30;22.70;;;;;;5028410;28;46576;-76
2023/06/22 07:29:26;;;;;;;23.27;7.10;;;26.50;22.80;;;;;;5030680;28;46407;-76
2023/06/22 07:31:52;;;;;;;19.00;8.27;;;26.80;21.40;;;;;;5031138;28;46429;-76
2023/06/22 07:34:19;;;;;;;14.40;7.30;;;27.00;21.90;;;;;;5026529;28;46443;-76
2023/06/22 07:36:45;;;;;;;26.37;7.93;;;27.00;21.70;;;;;;5030553;28;46573;-77
2023/06/22 07:39:12;;;;;;;14.60;6.93;;;26.90;22.10;;;;;;5032638;28;46487;-78
2023/06/22 07:41:39;;;;;;;27.20;7.30;;;26.90;21.10;;;;;;5028307;28;47877;-77
2023/06/22 07:44:06;;;;;;;18.70;6.77;;;27.10;21.70;;;;;;5027468;28;46862;-78
2023/06/22 07:46:31;;;;;;;18.90;8.30;;;27.40;20.90;;;;;;5028731;28;46682;-76
2023/06/22 07:48:57;;;;;;;17.20;8.20;;;27.20;20.80;;;;;;5028411;28;46769;-79
2023/06/22 07:51:23;;;;;;;16.47;7.37;;;27.10;20.10;;;;;;5027567;28;47006;-76
2023/06/22 07:53:49;;;;;;;13.30;6.90;;;27.20;21.10;;;;;;5029697;28;46557;-75
2023/06/22 07:56:18;;;;;;;15.47;7.03;;;27.30;20.90;;;;;;5031703;28;46404;-77
2023/06/22 07:58:45;;;;;;;18.87;6.90;;;27.30;21.10;;;;;;5031185;28;46482;-76
2023/06/22 08:01:11;;;;;;;18.30;7.00;;;27.70;19.60;;;;;;5027467;28;46687;-77
2023/06/22 08:03:36;;;;;;;15.20;7.70;;;28.00;20.00;;;;;;5028607;28;47034;-78
2023/06/22 08:06:02;;;;;;;16.53;7.33;;;28.30;19.10;;;;;;5032276;28;46470;-79
2023/06/22 08:08:28;;;;;;;13.20;7.70;;;28.00;19.20;;;;;;5031484;28;46617;-80
2023/06/22 08:10:53;;;;;;;16.97;6.83;;;28.20;18.10;;;;;;5027532;28;49528;-78
2023/06/22 08:13:19;;;;;;;21.63;8.90;;;28.20;18.90;;;;;;5029370;28;46909;-76
2023/06/22 08:15:44;;;;;;;25.07;7.20;;;28.00;19.00;;;;;;5030613;28;46822;-79
2023/06/22 08:18:10;;;;;;;22.83;7.60;;;27.70;19.80;;;;;;5030381;28;46461;-80
2023/06/22 08:20:36;;;;;;;21.03;7.80;;;27.80;18.90;;;;;;5027230;28;46601;-77
2023/06/22 08:23:05;;;;;;;17.90;6.23;;;27.80;19.70;;;;;;5030900;28;46539;-77
2023/06/22 08:25:32;;;;;;;19.97;7.10;;;28.00;19.40;;;;;;5029335;28;46462;-76
2023/06/22 08:27:58;;;;;;;17.27;8.40;;;28.30;18.80;;;;;;5029773;28;46379;-77
2023/06/22 08:30:23;;;;;;;26.20;8.13;;;28.60;17.00;;;;;;5028556;28;47027;-75
2023/06/22 08:32:49;;;;;;;17.43;7.20;;;28.60;17.70;;;;;;5030005;28;47148;-77
2023/06/22 08:35:15;;;;;;;28.07;8.30;;;28.50;18.00;;;;;;5029126;28;46509;-76
2023/06/22 08:37:40;;;;;;;25.10;8.53;;;28.40;18.30;;;;;;5029266;28;47117;-77
2023/06/22 08:40:09;;;;;;;16.43;7.00;;;28.20;17.70;;;;;;5029088;28;46521;-77
2023/06/22 08:42:37;;;;;;;22.33;7.20;;;28.20;18.50;;;;;;5029355;28;46526;-77
2023/06/22 08:45:03;;;;;;;23.00;8.20;;;28.50;18.10;;;;;;5030648;28;47028;-77
2023/06/22 08:47:29;;;;;;;27.33;8.67;;;28.60;17.50;;;;;;5028992;28;46412;-73
2023/06/22 08:49:55;;;;;;;18.03;7.10;;;28.60;17.60;;;;;;5033407;28;46799;-76
2023/06/22 08:52:20;;;;;;;19.27;8.37;;;28.60;16.50;;;;;;5040320;28;47087;-76
2023/06/22 08:54:47;;;;;;;22.30;8.23;;;28.50;17.70;;;;;;5032439;28;46545;-76
2023/06/22 08:57:12;;;;;;;18.73;7.93;;;28.40;17.90;;;;;;5032886;28;46605;-78
2023/06/22 08:59:38;;;;;;;19.73;8.47;;;28.70;17.50;;;;;;5032685;28;46501;-77
2023/06/22 09:02:03;;;;;;;20.90;7.63;;;28.80;16.90;;;;;;5034322;28;46475;-78
2023/06/22 09:04:29;;;;;;;19.83;6.97;;;28.80;16.90;;;;;;5033520;28;46548;-77
2023/06/22 09:06:54;;;;;;;18.77;7.40;;;29.00;17.10;;;;;;5030610;28;46953;-76
2023/06/22 09:09:21;;;;;;;21.17;8.20;;;29.30;16.70;;;;;;5032732;28;46998;-76
2023/06/22 09:11:47;;;;;;;21.73;8.23;;;29.40;15.20;;;;;;5034089;28;46625;-76
2023/06/22 09:14:12;;;;;;;15.90;7.23;;;29.30;16.50;;;;;;5029354;28;46503;-75
2023/06/22 09:16:38;;;;;;;20.20;8.67;;;29.40;17.00;;;;;;5032901;28;46036;-74
2023/06/22 09:19:04;;;;;;;25.50;7.73;;;29.40;16.30;;;;;;5034702;28;46526;-78
2023/06/22 09:21:29;;;;;;;18.93;8.23;;;29.30;15.80;;;;;;5034067;28;46371;-82
2023/06/22 09:23:55;;;;;;;20.60;7.97;;;29.40;16.50;;;;;;5034687;28;46806;-78
2023/06/22 09:26:22;;;;;;;22.17;7.90;;;29.50;16.30;;;;;;5033167;28;47021;-77
2023/06/22 09:28:48;;;;;;;23.80;8.77;;;29.70;15.60;;;;;;5033036;28;46678;-77
2023/06/22 09:31:13;;;;;;;23.23;8.10;;;29.90;15.20;;;;;;5033456;28;46424;-75
2023/06/22 09:33:40;;;;;;;17.40;7.20;;;29.90;15.30;;;;;;5032164;28;46483;-79
2023/06/22 09:36:09;;;;;;;22.73;7.77;;;29.90;15.30;;;;;;5033726;28;46825;-77
2023/06/22 09:38:38;;;;;;;17.93;7.60;;;30.20;14.90;;;;;;5036069;28;46996;-77
2023/06/22 09:41:04;;;;;;;26.10;8.17;;;30.30;13.60;;;;;;5032070;28;45783;-77
2023/06/22 09:43:32;;;;;;;19.47;7.97;;;30.50;14.10;;;;;;5033195;28;46414;-78
2023/06/22 09:45:58;;;;;;;19.60;9.40;;;30.20;14.00;;;;;;5038283;28;46733;-77
2023/06/22 09:48:23;;;;;;;17.90;7.70;;;30.40;14.20;;;;;;5032097;28;49085;-76
2023/06/22 09:50:49;;;;;;;18.67;7.30;;;30.40;13.10;;;;;;5029467;28;45876;-77
2023/06/22 09:53:15;;;;;;;26.03;8.30;;;30.50;14.00;;;;;;5030875;28;46502;-80
2023/06/22 09:55:40;;;;;;;22.67;8.50;;;30.70;13.50;;;;;;5033669;28;46684;-78
2023/06/22 09:58:06;;;;;;;21.70;7.03;;;30.90;13.00;;;;;;5035245;28;48083;-79
2023/06/22 10:00:31;;;;;;;22.63;6.90;;;31.00;12.80;;;;;;5032222;28;46515;-78
2023/06/22 10:02:57;;;;;;;18.20;7.70;;;30.90;12.80;;;;;;5031258;28;46427;-79
2023/06/22 10:05:23;;;;;;;19.80;8.63;;;31.00;12.80;;;;;;5033009;28;46486;-79
2023/06/22 10:07:48;;;;;;;21.57;8.40;;;31.00;12.40;;;;;;5031881;28;47647;-77
2023/06/22 10:10:15;;;;;;;32.13;7.70;;;31.20;11.30;;;;;;5029675;28;46489;-78
2023/06/22 10:12:54;;;;;;;24.90;7.90;;;31.10;12.00;;;;;;5032708;28;46778;-79
2023/06/22 10:15:21;;;;;;;21.63;8.10;;;31.50;11.70;;;;;;5035647;28;46686;-79
2023/06/22 10:17:46;;;;;;;23.20;8.20;;;31.60;11.10;;;;;;5035162;28;46517;-78
2023/06/22 10:20:12;;;;;;;13.40;7.23;;;31.80;9.50;;;;;;5028270;28;46898;-76
2023/06/22 10:22:40;;;;;;;20.03;8.20;;;31.80;10.00;;;;;;5034825;28;46483;-78
2023/06/22 10:25:06;;;;;;;20.07;6.90;;;31.90;9.00;;;;;;5033024;28;47010;-77
2023/06/22 10:27:32;;;;;;;32.77;7.60;;;31.80;9.50;;;;;;5031698;28;47036;-78
2023/06/22 10:29:57;;;;;;;23.27;7.90;;;31.70;9.90;;;;;;5031968;28;45905;-77
2023/06/22 10:32:23;;;;;;;18.70;7.63;;;31.90;9.50;;;;;;5035383;28;46511;-77
2023/06/22 10:34:49;;;;;;;28.90;8.90;;;32.20;9.10;;;;;;5037527;28;46541;-77
2023/06/22 10:37:14;;;;;;;20.80;7.03;;;31.90;8.40;;;;;;5032421;28;46515;-77
2023/06/22 10:39:40;;;;;;;18.00;7.67;;;31.90;9.30;;;;;;5052954;28;47184;-82
2023/06/22 10:42:06;;;;;;;18.83;8.07;;;31.60;8.30;;;;;;5038750;28;46793;-78
2023/06/22 10:44:31;;;;;;;27.33;8.40;;;31.50;9.40;;;;;;5035200;28;46903;-78
2023/06/22 10:46:57;;;;;;;19.20;7.00;;;31.50;9.20;;;;;;5033753;28;47167;-81
2023/06/22 10:49:22;;;;;;;14.80;7.30;;;31.60;9.20;;;;;;5033514;28;46670;-78
2023/06/22 10:51:48;;;;;;;23.03;7.70;;;31.90;8.10;;;;;;5036187;28;46456;-78
2023/06/22 10:54:13;;;;;;;22.77;7.37;;;32.00;8.80;;;;;;5029647;28;46615;-77
2023/06/22 10:56:40;;;;;;;20.80;7.60;;;31.90;8.70;;;;;;5029978;28;46428;-76
2023/06/22 10:59:05;;;;;;;19.90;6.60;;;32.00;8.70;;;;;;5029665;28;46379;-77
2023/06/22 11:01:33;;;;;;;17.60;7.37;;;32.10;8.00;;;;;;5034529;28;46584;-77
2023/06/22 11:03:58;;;;;;;16.73;6.90;;;32.10;8.90;;;;;;5041356;28;46574;-79
2023/06/22 11:06:24;;;;;;;18.83;8.07;;;32.30;8.50;;;;;;5028189;28;46610;-77
2023/06/22 11:08:49;;;;;;;14.70;7.33;;;32.60;7.70;;;;;;5027897;28;46787;-77
2023/06/22 11:11:17;;;;;;;17.17;8.07;;;32.50;7.30;;;;;;5032650;28;46556;-79
2023/06/22 11:13:43;;;;;;;23.03;7.40;;;32.50;8.10;;;;;;5029715;28;46695;-77
2023/06/22 11:16:09;;;;;;;28.57;8.33;;;32.30;8.20;;;;;;5036206;28;47185;-78
2023/06/22 11:18:35;;;;;;;21.08;8.10;;;32.60;8.00;;;;;;5026713;28;46378;-78
2023/06/22 11:21:00;;;;;;;23.90;9.20;;;32.30;7.40;;;;;;5030376;28;46405;-79
2023/06/22 11:23:27;;;;;;;20.30;7.67;;;32.30;8.10;;;;;;5028963;28;46634;-77
2023/06/22 11:25:53;;;;;;;23.70;9.10;;;32.50;7.50;;;;;;5024964;28;47050;-78
2023/06/22 11:28:19;;;;;;;32.30;8.63;;;32.30;7.40;;;;;;5026734;28;46503;-78
2023/06/22 11:30:44;;;;;;;22.13;8.37;;;32.50;6.60;;;;;;5029284;28;46485;-77
2023/06/22 11:33:10;;;;;;;23.63;7.10;;;32.50;7.60;;;;;;5028514;28;46753;-78
2023/06/22 11:35:35;;;;;;;22.07;8.40;;;32.70;7.60;;;;;;5029111;28;46601;-78
2023/06/22 11:38:03;;;;;;;18.27;8.03;;;32.80;7.30;;;;;;5028812;28;46383;-76
2023/06/22 11:40:28;;;;;;;18.97;8.60;;;33.10;6.80;;;;;;5026255;28;46725;-77
2023/06/22 11:42:54;;;;;;;18.40;7.30;;;33.00;6.50;;;;;;5025122;28;46710;-80
2023/06/22 11:45:20;;;;;;;24.43;8.00;;;32.90;6.60;;;;;;5029973;28;46988;-79
2023/06/22 11:47:46;;;;;;;17.47;7.70;;;32.90;6.50;;;;;;5032161;28;46497;-77
2023/06/22 11:50:12;;;;;;;25.10;8.07;;;33.30;5.20;;;;;;5026529;28;46489;-76
2023/06/22 11:52:37;;;;;;;15.53;7.80;;;33.30;5.80;;;;;;5030876;28;46653;-80
2023/06/22 11:55:05;;;;;;;26.80;8.10;;;33.40;5.50;;;;;;5038283;28;49278;-81
2023/06/22 11:57:33;;;;;;;20.73;7.07;;;33.70;4.90;;;;;;5030453;28;46606;-79
2023/06/22 11:59:58;;;;;;;24.60;8.50;;;33.60;4.60;;;;;;5025791;28;46501;-79
2023/06/22 12:02:24;;;;;;;19.67;7.23;;;33.90;3.40;;;;;;5026267;28;46329;-77
2023/06/22 12:04:52;;;;;;;17.93;8.20;;;34.00;4.00;;;;;;5031866;28;46926;-79
2023/06/22 12:07:18;;;;;;;20.20;7.97;;;34.30;3.70;;;;;;5033169;28;46419;-79
2023/06/22 12:09:43;;;;;;;19.43;7.20;;;34.50;3.40;;;;;;5034053;28;46843;-80
2023/06/22 12:12:09;;;;;;;14.33;6.67;;;34.90;1.80;;;;;;5035024;28;46364;-79
2023/06/22 12:14:35;;;;;;;16.80;7.60;;;35.10;2.50;;;;;;5033254;28;48122;-78
2023/06/22 12:17:01;;;;;;;22.43;8.07;;;35.10;2.30;;;;;;5026344;28;46848;-78
2023/06/22 12:19:26;;;;;;;22.30;7.90;;;34.70;2.60;;;;;;5026613;28;46429;-78
2023/06/22 12:21:52;;;;;;;25.03;7.60;;;34.50;1.50;;;;;;5031345;28;46471;-78
2023/06/22 12:24:17;;;;;;;19.63;7.83;;;34.40;3.00;;;;;;5040095;28;48552;-77
2023/06/22 12:26:43;;;;;;;17.33;7.00;;;34.50;3.10;;;;;;5036113;28;46695;-77
2023/06/22 12:29:09;;;;;;;20.93;7.70;;;34.60;2.80;;;;;;5030634;28;46415;-76
2023/06/22 12:31:38;;;;;;;18.37;7.43;;;34.50;1.80;;;;;;5033578;28;46408;-79
2023/06/22 12:34:04;;;;;;;17.67;7.53;;;34.60;2.60;;;;;;5026949;28;46713;-80
2023/06/22 12:36:29;;;;;;;18.97;7.10;;;34.70;2.50;;;;;;5026179;28;46591;-80